Time;durP1;ratioP1;P1;durP2;ratioP2;P2;SDS_P1;SDS_P2;PMS_P1;PMS_P2;Temp;Humidity;BMP_temperature;BMP_pressure;BME280_temperature;BME280_humidity;BME280_pressure;Samples;Min_cycle;Max_cycle;Signal;HPM_P1;HPM_P2
2023/04/29 00:01:26;;;;;;;21.05;14.63;;;15.50;67.60;;;;;;5053464;28;20527;-77
2023/04/29 00:03:52;;;;;;;19.13;13.05;;;15.40;67.60;;;;;;5052142;28;20052;-76
2023/04/29 00:06:18;;;;;;;20.40;12.38;;;15.40;67.60;;;;;;5053368;28;20104;-76
2023/04/29 00:08:43;;;;;;;18.95;13.32;;;15.30;67.50;;;;;;5052379;28;20052;-76
2023/04/29 00:11:12;;;;;;;22.15;14.25;;;15.30;67.60;;;;;;5052026;28;20033;-76
2023/04/29 00:13:39;;;;;;;18.70;13.50;;;15.20;67.80;;;;;;5053364;28;20017;-77
2023/04/29 00:16:06;;;;;;;24.70;15.40;;;15.10;67.80;;;;;;5052100;28;20104;-77
2023/04/29 00:18:32;;;;;;;21.85;15.70;;;15.10;68.20;;;;;;5051887;28;20040;-77
2023/04/29 00:20:58;;;;;;;22.88;15.88;;;15.00;68.40;;;;;;5051974;28;20032;-76
2023/04/29 00:23:24;;;;;;;21.80;15.27;;;15.00;68.90;;;;;;5053109;28;20021;-77
2023/04/29 00:25:52;;;;;;;24.10;15.50;;;15.00;69.10;;;;;;5064287;28;20021;-76
2023/04/29 00:28:18;;;;;;;27.10;16.63;;;14.90;69.20;;;;;;5073286;28;20020;-76
2023/04/29 00:30:44;;;;;;;28.00;18.45;;;14.90;69.40;;;;;;5071973;28;20111;-77
2023/04/29 00:33:10;;;;;;;29.75;17.52;;;15.00;69.60;;;;;;5072833;28;20099;-77
2023/04/29 00:35:35;;;;;;;26.88;17.45;;;15.00;69.60;;;;;;5073118;28;20432;-76
2023/04/29 00:38:01;;;;;;;27.55;18.73;;;15.00;69.80;;;;;;5071719;28;20039;-76
2023/04/29 00:40:30;;;;;;;25.92;15.55;;;15.00;70.20;;;;;;5073173;28;20157;-78
2023/04/29 00:42:56;;;;;;;24.27;15.02;;;15.00;70.00;;;;;;5073184;28;20377;-77
2023/04/29 00:45:22;;;;;;;27.70;17.15;;;15.10;70.00;;;;;;5073325;28;20028;-78
2023/04/29 00:47:48;;;;;;;30.10;19.20;;;15.10;70.00;;;;;;5073035;28;20020;-78
2023/04/29 00:50:14;;;;;;;33.67;20.55;;;15.20;70.00;;;;;;5071983;28;20363;-76
2023/04/29 00:52:42;;;;;;;37.90;21.90;;;15.20;70.00;;;;;;5073204;28;20105;-77
2023/04/29 00:55:09;;;;;;;28.92;18.42;;;15.20;70.10;;;;;;5066524;28;20102;-77
2023/04/29 00:57:35;;;;;;;20.90;15.10;;;15.30;70.00;;;;;;5052907;28;20025;-77
2023/04/29 01:00:01;;;;;;;19.13;14.77;;;15.30;70.00;;;;;;5052881;28;20098;-76
2023/04/29 01:02:28;;;;;;;22.58;16.05;;;15.30;69.90;;;;;;5052831;28;20466;-77
2023/04/29 01:04:54;;;;;;;23.02;15.73;;;15.40;69.90;;;;;;5054677;28;20040;-76
2023/04/29 01:07:50;;;;;;;21.33;15.93;;;15.40;69.90;;;;;;5056578;28;20071;-77
2023/04/29 01:10:27;;;;;;;21.90;14.98;;;15.40;69.80;;;;;;5056622;28;20029;-77
2023/04/29 01:12:58;;;;;;;20.30;15.57;;;15.40;69.70;;;;;;5055163;28;20025;-77
2023/04/29 01:15:53;;;;;;;18.80;14.30;;;15.30;69.60;;;;;;5056409;28;20075;-76
2023/04/29 01:18:39;;;;;;;;;;;15.30;69.60;;;;;;5056847;28;20025;-77
2023/04/29 01:21:05;;;;;;;19.83;14.15;;;15.30;69.10;;;;;;5055982;28;19911;-76
2023/04/29 01:23:31;;;;;;;19.20;14.82;;;15.30;69.40;;;;;;5056014;28;20041;-76
2023/04/29 01:25:58;;;;;;;19.42;14.25;;;15.30;69.60;;;;;;5056409;28;20537;-76
2023/04/29 01:28:36;;;;;;;24.48;15.82;;;15.20;69.60;;;;;;5070283;28;20032;-76
2023/04/29 01:31:35;;;;;;;28.30;14.90;;;15.10;69.60;;;;;;5076171;28;20043;-78
2023/04/29 01:34:13;;;;;;;21.70;14.60;;;15.10;69.70;;;;;;5091805;28;20425;-76
2023/04/29 01:36:49;;;;;;;18.48;13.65;;;15.00;69.70;;;;;;5076000;28;20024;-76
2023/04/29 01:39:57;;;;;;;22.10;16.35;;;15.00;69.80;;;;;;5076042;28;20118;-77
2023/04/29 01:42:32;;;;;;;30.15;15.70;;;15.00;69.90;;;;;;5069118;28;20120;-78
2023/04/29 01:45:00;;;;;;;24.95;16.58;;;14.90;70.00;;;;;;5075793;28;20074;-77
2023/04/29 01:47:28;;;;;;;46.85;16.20;;;14.90;70.30;;;;;;5075851;28;20029;-77
2023/04/29 01:49:53;;;;;;;38.30;15.30;;;14.90;70.60;;;;;;5075856;28;20021;-76
2023/04/29 01:52:20;;;;;;;30.25;14.32;;;14.90;70.80;;;;;;5075784;28;20031;-77
2023/04/29 01:54:46;;;;;;;32.58;14.65;;;14.90;71.00;;;;;;5072394;28;20025;-77
2023/04/29 01:57:11;;;;;;;21.38;13.85;;;14.90;71.10;;;;;;5060769;28;20115;-76
2023/04/29 01:59:37;;;;;;;29.48;15.40;;;14.90;71.10;;;;;;5074380;28;20048;-77
2023/04/29 02:02:03;;;;;;;25.33;15.45;;;14.90;71.10;;;;;;5075723;28;20485;-78
2023/04/29 02:04:32;;;;;;;22.35;14.90;;;14.90;71.20;;;;;;5075598;28;20021;-77
2023/04/29 02:06:58;;;;;;;18.60;14.05;;;14.90;71.10;;;;;;5075492;28;20020;-79
2023/04/29 02:09:24;;;;;;;32.10;15.48;;;14.90;71.10;;;;;;5075463;28;20096;-77
2023/04/29 02:11:49;;;;;;;28.65;17.40;;;14.90;71.20;;;;;;5075428;28;20056;-77
2023/04/29 02:14:15;;;;;;;29.95;16.60;;;14.90;71.40;;;;;;5075369;28;20020;-77
2023/04/29 02:16:44;;;;;;;29.05;15.38;;;14.90;71.60;;;;;;5073981;28;20029;-77
2023/04/29 02:19:10;;;;;;;27.80;16.73;;;14.90;71.70;;;;;;5074103;28;20481;-78
2023/04/29 02:21:38;;;;;;;25.77;17.10;;;15.00;71.80;;;;;;5075254;28;20032;-77
2023/04/29 02:24:05;;;;;;;37.95;16.52;;;14.90;71.90;;;;;;5075063;28;20040;-76
2023/04/29 02:26:31;;;;;;;28.33;14.05;;;14.90;72.00;;;;;;5059264;28;20021;-77
2023/04/29 02:28:57;;;;;;;22.42;14.02;;;15.00;72.00;;;;;;5055161;28;20020;-76
2023/04/29 02:31:23;;;;;;;30.88;15.30;;;15.00;71.90;;;;;;5055453;28;20150;-78
2023/04/29 02:33:49;;;;;;;30.65;13.00;;;15.00;72.10;;;;;;5074968;28;20091;-77
2023/04/29 02:36:14;;;;;;;54.72;18.52;;;15.00;72.00;;;;;;5075065;28;20381;-77
2023/04/29 02:38:40;;;;;;;40.28;14.25;;;15.00;72.10;;;;;;5074769;28;20032;-76
2023/04/29 02:41:06;;;;;;;41.80;13.23;;;15.00;72.10;;;;;;5073585;28;20020;-77
2023/04/29 02:43:32;;;;;;;42.05;14.93;;;15.00;72.00;;;;;;5074728;28;20017;-77
2023/04/29 02:45:59;;;;;;;19.95;14.32;;;15.00;71.90;;;;;;5073350;28;20024;-77
2023/04/29 02:48:24;;;;;;;40.38;15.88;;;15.00;71.90;;;;;;5073399;28;20024;-77
2023/04/29 02:50:51;;;;;;;55.38;15.85;;;15.00;72.00;;;;;;5074578;28;20028;-77
2023/04/29 02:53:17;;;;;;;30.35;13.02;;;15.00;72.10;;;;;;5074568;28;20455;-77
2023/04/29 02:55:43;;;;;;;55.10;16.67;;;15.00;72.00;;;;;;5061445;28;20033;-77
2023/04/29 02:58:09;;;;;;;100.93;16.02;;;15.00;72.00;;;;;;5054455;28;20048;-76
2023/04/29 03:00:35;;;;;;;63.92;16.05;;;14.90;72.10;;;;;;5053230;28;20023;-77
2023/04/29 03:03:01;;;;;;;75.28;16.70;;;14.90;72.10;;;;;;5054458;28;20109;-76
2023/04/29 03:05:27;;;;;;;71.10;13.77;;;14.90;72.30;;;;;;5054370;28;20022;-76
2023/04/29 03:07:52;;;;;;;29.58;14.75;;;14.80;72.40;;;;;;5054309;28;20036;-77
2023/04/29 03:10:18;;;;;;;51.35;15.55;;;14.80;72.60;;;;;;5054270;28;20029;-76
2023/04/29 03:12:44;;;;;;;20.73;12.45;;;14.80;72.80;;;;;;5054278;28;20033;-76
2023/04/29 03:15:10;;;;;;;54.08;15.10;;;14.80;72.90;;;;;;5054182;28;20029;-76
2023/04/29 03:17:36;;;;;;;56.58;12.10;;;14.80;72.90;;;;;;5052782;28;20390;-77
2023/04/29 03:20:03;;;;;;;46.38;15.45;;;14.80;72.90;;;;;;5054141;28;20025;-77
2023/04/29 03:22:29;;;;;;;64.65;15.77;;;14.70;72.80;;;;;;5052805;28;20497;-77
2023/04/29 03:24:55;;;;;;;63.28;15.32;;;14.70;72.80;;;;;;5052443;28;20084;-77
2023/04/29 03:27:22;;;;;;;34.60;14.13;;;14.60;72.80;;;;;;5053531;28;20473;-77
2023/04/29 03:29:48;;;;;;;77.30;16.45;;;14.60;72.90;;;;;;5054233;28;20090;-76
2023/04/29 03:32:14;;;;;;;46.65;16.08;;;14.60;73.10;;;;;;5072762;28;20381;-77
2023/04/29 03:34:39;;;;;;;67.22;14.02;;;14.50;73.30;;;;;;5073780;28;20024;-77
2023/04/29 03:37:05;;;;;;;32.75;13.77;;;14.50;73.40;;;;;;5073700;28;20112;-76
2023/04/29 03:39:31;;;;;;;53.90;15.27;;;14.50;73.50;;;;;;5073586;28;20032;-78
2023/04/29 03:42:00;;;;;;;57.78;15.77;;;14.50;73.60;;;;;;5073752;28;20025;-78
2023/04/29 03:44:28;;;;;;;49.83;16.30;;;14.50;73.80;;;;;;5072354;28;20103;-77
2023/04/29 03:46:53;;;;;;;50.83;17.10;;;14.50;73.90;;;;;;5072251;28;20020;-77
2023/04/29 03:49:19;;;;;;;50.30;16.33;;;14.50;74.00;;;;;;5073638;28;20021;-77
2023/04/29 03:51:45;;;;;;;50.47;15.90;;;14.50;74.10;;;;;;5072323;28;20470;-77
2023/04/29 03:54:12;;;;;;;27.33;16.10;;;14.50;74.20;;;;;;5073580;28;20481;-76
2023/04/29 03:56:38;;;;;;;42.08;18.67;;;14.50;74.30;;;;;;5055330;28;20044;-76
2023/04/29 03:59:04;;;;;;;84.60;20.08;;;14.50;74.40;;;;;;5053439;28;20029;-77
2023/04/29 04:01:29;;;;;;;30.63;17.60;;;14.50;74.60;;;;;;5053459;28;20021;-77
2023/04/29 04:03:55;;;;;;;30.95;16.75;;;14.50;74.70;;;;;;5053328;28;20021;-77
2023/04/29 04:06:21;;;;;;;31.60;14.93;;;14.50;74.80;;;;;;5053230;28;20017;-76
2023/04/29 04:08:47;;;;;;;29.27;15.98;;;14.60;74.90;;;;;;5053364;28;20363;-76
2023/04/29 04:11:14;;;;;;;33.72;15.10;;;14.70;75.00;;;;;;5053256;28;20029;-77
2023/04/29 04:13:42;;;;;;;33.95;17.75;;;14.80;75.10;;;;;;5053237;28;20096;-76
2023/04/29 04:16:11;;;;;;;45.50;19.92;;;14.90;74.90;;;;;;5053332;28;20054;-77
2023/04/29 04:18:37;;;;;;;47.45;22.55;;;14.90;74.60;;;;;;5051847;28;20032;-77
2023/04/29 04:21:10;;;;;;;67.50;22.05;;;14.90;74.30;;;;;;5053256;28;20028;-77
2023/04/29 04:23:39;;;;;;;50.25;20.25;;;14.90;74.00;;;;;;5053329;28;20044;-79
2023/04/29 04:26:05;;;;;;;37.53;20.85;;;15.00;74.20;;;;;;5059150;28;20102;-77
2023/04/29 04:28:31;;;;;;;47.20;23.13;;;15.00;74.10;;;;;;5054856;28;20104;-76
2023/04/29 04:30:57;;;;;;;46.40;25.10;;;15.00;74.00;;;;;;5072115;28;20115;-77
2023/04/29 04:33:24;;;;;;;57.20;26.77;;;15.00;73.90;;;;;;5088272;28;20040;-76
2023/04/29 04:35:49;;;;;;;54.05;24.45;;;15.00;73.90;;;;;;5065464;28;20024;-77
2023/04/29 04:38:16;;;;;;;64.20;29.15;;;15.00;73.90;;;;;;5073399;28;20025;-76
2023/04/29 04:40:42;;;;;;;69.70;34.03;;;15.10;74.00;;;;;;5077406;28;20052;-76
2023/04/29 04:43:08;;;;;;;82.72;33.97;;;15.00;73.80;;;;;;5077698;28;20017;-76
2023/04/29 04:45:34;;;;;;;89.80;35.40;;;15.00;73.80;;;;;;5077551;28;20452;-77
2023/04/29 04:48:00;;;;;;;84.88;34.75;;;14.90;73.70;;;;;;5076964;28;20500;-77
2023/04/29 04:50:29;;;;;;;80.88;33.35;;;14.90;73.70;;;;;;5075473;28;20028;-76
2023/04/29 04:52:55;;;;;;;75.95;33.28;;;14.90;73.90;;;;;;5076945;28;20016;-77
2023/04/29 04:55:22;;;;;;;93.20;33.85;;;14.90;74.00;;;;;;5066618;28;20033;-76
2023/04/29 04:57:47;;;;;;;78.22;33.53;;;14.80;74.10;;;;;;5074518;28;20032;-77
2023/04/29 05:00:14;;;;;;;80.07;32.75;;;14.80;74.20;;;;;;5077102;28;20074;-77
2023/04/29 05:02:39;;;;;;;80.93;30.67;;;14.80;74.30;;;;;;5077033;28;20024;-76
2023/04/29 05:05:05;;;;;;;61.10;29.73;;;14.80;74.30;;;;;;5076900;28;20024;-77
2023/04/29 05:07:34;;;;;;;61.05;30.23;;;14.80;74.30;;;;;;5060943;28;20100;-77
2023/04/29 05:10:01;;;;;;;62.30;30.52;;;14.80;74.20;;;;;;5056816;28;20470;-77
2023/04/29 05:12:30;;;;;;;61.13;30.95;;;14.80;74.40;;;;;;5056491;28;20029;-76
2023/04/29 05:14:56;;;;;;;63.25;30.45;;;14.80;74.30;;;;;;5056456;28;20021;-76
2023/04/29 05:17:22;;;;;;;63.60;30.30;;;14.90;74.30;;;;;;5058321;28;20360;-76
2023/04/29 05:19:48;;;;;;;63.63;30.13;;;14.90;74.20;;;;;;5055086;28;20075;-77
2023/04/29 05:22:14;;;;;;;68.18;30.88;;;14.90;74.00;;;;;;5056184;28;20021;-77
2023/04/29 05:24:40;;;;;;;62.97;30.02;;;14.90;74.00;;;;;;5055915;28;20390;-76
2023/04/29 05:27:06;;;;;;;64.38;30.83;;;15.00;73.90;;;;;;5062295;28;20035;-77
2023/04/29 05:29:31;;;;;;;72.07;33.03;;;14.90;73.70;;;;;;5076315;28;20086;-77
2023/04/29 05:31:58;;;;;;;59.13;29.60;;;15.00;73.70;;;;;;5058405;28;20484;-77
2023/04/29 05:34:23;;;;;;;67.45;32.17;;;15.00;73.80;;;;;;5055981;28;20025;-77
2023/04/29 05:36:49;;;;;;;71.05;31.63;;;15.10;73.80;;;;;;5056490;28;20440;-77
2023/04/29 05:39:16;;;;;;;67.10;31.48;;;15.10;73.60;;;;;;5055954;28;20057;-77
2023/04/29 05:41:42;;;;;;;72.93;31.58;;;15.10;73.70;;;;;;5064039;28;20051;-77
2023/04/29 05:44:08;;;;;;;68.05;32.28;;;15.20;74.30;;;;;;5068498;28;20033;-77
2023/04/29 05:46:34;;;;;;;71.07;34.05;;;15.20;73.50;;;;;;5071601;28;20060;-77
2023/04/29 05:49:00;;;;;;;68.88;30.30;;;15.30;73.40;;;;;;5055784;28;20439;-78
2023/04/29 05:51:27;;;;;;;78.10;34.47;;;15.40;73.30;;;;;;5070789;28;20078;-77
2023/04/29 05:53:53;;;;;;;75.45;33.10;;;15.50;73.00;;;;;;5062513;28;20036;-77
2023/04/29 05:56:21;;;;;;;99.72;38.55;;;15.50;72.80;;;;;;5055897;28;20029;-77
2023/04/29 05:58:47;;;;;;;91.63;36.33;;;15.60;72.40;;;;;;5057733;28;20021;-77
2023/04/29 06:01:12;;;;;;;83.50;33.53;;;15.60;72.30;;;;;;5055540;28;20100;-76
2023/04/29 06:03:38;;;;;;;95.50;35.22;;;15.70;72.50;;;;;;5055791;28;20027;-78
2023/04/29 06:06:04;;;;;;;105.05;39.22;;;15.80;72.30;;;;;;5055329;28;20071;-77
2023/04/29 06:08:30;;;;;;;66.43;31.83;;;15.80;71.40;;;;;;5055558;28;20079;-77
2023/04/29 06:10:56;;;;;;;57.45;29.58;;;15.90;71.30;;;;;;5055304;28;20100;-76
2023/04/29 06:13:22;;;;;;;55.30;27.58;;;15.90;71.20;;;;;;5055300;28;20100;-77
2023/04/29 06:15:48;;;;;;;58.50;27.58;;;16.00;71.10;;;;;;5054074;28;20021;-77
2023/04/29 06:18:14;;;;;;;62.38;30.20;;;16.10;71.10;;;;;;5055141;28;20053;-77
2023/04/29 06:20:40;;;;;;;52.47;27.75;;;16.10;71.00;;;;;;5074714;28;20055;-77
2023/04/29 06:23:06;;;;;;;56.10;28.15;;;16.30;71.20;;;;;;5075012;28;20048;-77
2023/04/29 06:25:31;;;;;;;56.15;26.95;;;16.30;71.10;;;;;;5063368;28;20040;-77
2023/04/29 06:27:57;;;;;;;59.78;30.17;;;16.40;71.70;;;;;;5071834;28;20044;-76
2023/04/29 06:30:23;;;;;;;67.20;29.65;;;16.50;70.60;;;;;;5070870;28;20466;-76
2023/04/29 06:32:49;;;;;;;54.72;26.60;;;16.60;70.00;;;;;;5068738;28;20034;-77
2023/04/29 06:35:14;;;;;;;54.72;26.95;;;16.70;70.20;;;;;;5073739;28;20079;-78
2023/04/29 06:37:40;;;;;;;49.58;26.08;;;16.80;70.30;;;;;;5078166;28;20473;-76
2023/04/29 06:40:07;;;;;;;52.63;26.58;;;16.90;70.40;;;;;;5077332;28;20107;-77
2023/04/29 06:42:32;;;;;;;51.53;24.88;;;17.00;70.20;;;;;;5076643;28;20088;-76
2023/04/29 06:44:59;;;;;;;61.80;28.27;;;17.10;70.00;;;;;;5073103;28;20528;-76
2023/04/29 06:47:25;;;;;;;56.65;26.42;;;17.30;69.70;;;;;;5074460;28;20107;-77
2023/04/29 06:49:51;;;;;;;52.03;25.75;;;17.40;69.20;;;;;;5073381;28;20067;-77
2023/04/29 06:52:17;;;;;;;53.72;27.90;;;17.50;69.00;;;;;;5074556;28;20024;-78
2023/04/29 06:54:43;;;;;;;43.83;23.13;;;17.60;68.80;;;;;;5072695;28;20021;-77
2023/04/29 06:57:09;;;;;;;43.85;23.52;;;17.70;68.60;;;;;;5072388;28;20056;-77
2023/04/29 06:59:35;;;;;;;43.50;23.02;;;17.80;68.00;;;;;;5052916;28;20021;-77
2023/04/29 07:02:01;;;;;;;43.45;22.65;;;17.90;67.80;;;;;;5053611;28;20048;-77
2023/04/29 07:04:27;;;;;;;56.05;28.10;;;18.00;67.30;;;;;;5054136;28;20074;-76
2023/04/29 07:06:53;;;;;;;51.83;26.45;;;18.00;66.20;;;;;;5054505;28;20017;-77
2023/04/29 07:09:19;;;;;;;45.13;24.88;;;18.10;65.90;;;;;;5054383;28;20101;-77
2023/04/29 07:11:45;;;;;;;45.42;23.63;;;18.10;66.10;;;;;;5053111;28;20104;-77
2023/04/29 07:14:11;;;;;;;49.38;25.15;;;18.10;65.90;;;;;;5054072;28;20112;-78
2023/04/29 07:16:37;;;;;;;47.67;25.50;;;18.20;66.10;;;;;;5054340;28;20509;-77
2023/04/29 07:19:03;;;;;;;44.75;23.52;;;18.20;66.40;;;;;;5053844;28;20083;-78
2023/04/29 07:21:30;;;;;;;44.30;23.70;;;18.30;66.30;;;;;;5052753;28;20017;-76
2023/04/29 07:23:58;;;;;;;43.15;23.55;;;18.30;66.00;;;;;;5052386;28;20128;-77
2023/04/29 07:26:23;;;;;;;48.38;24.65;;;18.30;65.80;;;;;;5068469;28;20111;-76
2023/04/29 07:28:53;;;;;;;43.83;24.25;;;18.40;65.70;;;;;;5053776;28;20538;-76
2023/04/29 07:31:19;;;;;;;43.65;24.45;;;18.40;65.60;;;;;;5065430;28;20039;-77
2023/04/29 07:33:46;;;;;;;43.33;23.88;;;18.40;65.50;;;;;;5065083;28;20070;-77
2023/04/29 07:36:12;;;;;;;39.17;22.73;;;18.50;65.50;;;;;;5054026;28;20032;-77
2023/04/29 07:38:37;;;;;;;39.28;22.30;;;18.60;65.70;;;;;;5053579;28;20029;-77
2023/04/29 07:41:03;;;;;;;36.17;21.92;;;18.60;65.70;;;;;;5052243;28;20021;-77
2023/04/29 07:43:30;;;;;;;32.22;19.10;;;18.70;65.80;;;;;;5052238;28;20025;-77
2023/04/29 07:45:56;;;;;;;35.25;20.50;;;18.80;66.30;;;;;;5053933;28;20029;-77
2023/04/29 07:48:22;;;;;;;36.90;20.02;;;19.00;65.40;;;;;;5052666;28;20024;-77
2023/04/29 07:50:48;;;;;;;30.63;18.77;;;19.00;65.30;;;;;;5053555;28;20386;-77
2023/04/29 07:53:17;;;;;;;26.75;16.73;;;19.10;65.90;;;;;;5052148;28;20025;-76
2023/04/29 07:55:42;;;;;;;25.85;16.77;;;19.20;65.00;;;;;;5053636;28;20033;-77
2023/04/29 07:58:08;;;;;;;26.58;17.63;;;19.30;64.60;;;;;;5052008;28;20119;-77
2023/04/29 08:00:34;;;;;;;28.85;18.85;;;19.40;64.60;;;;;;5056669;28;20031;-77
2023/04/29 08:03:00;;;;;;;20.15;13.00;;;19.50;64.60;;;;;;5072029;28;20074;-77
2023/04/29 08:05:29;;;;;;;24.52;14.27;;;19.70;64.30;;;;;;5056061;28;20506;-77
2023/04/29 08:07:55;;;;;;;18.27;12.48;;;19.80;63.50;;;;;;5054747;28;20029;-77
2023/04/29 08:10:21;;;;;;;18.23;12.82;;;19.90;63.50;;;;;;5072659;28;20059;-77
2023/04/29 08:12:48;;;;;;;20.95;12.70;;;20.00;62.70;;;;;;5053379;28;20029;-75
2023/04/29 08:15:14;;;;;;;16.67;10.20;;;20.10;62.40;;;;;;5051903;28;20028;-76
2023/04/29 08:17:47;;;;;;;14.38;8.70;;;20.20;62.10;;;;;;5051857;28;20033;-76
2023/04/29 08:20:14;;;;;;;13.93;8.48;;;20.30;61.90;;;;;;5055986;28;20474;-77
2023/04/29 08:22:40;;;;;;;12.88;8.90;;;20.40;61.80;;;;;;5073398;28;20067;-77
2023/04/29 08:25:06;;;;;;;12.88;8.00;;;20.50;61.80;;;;;;5070810;28;20036;-76
2023/04/29 08:27:32;;;;;;;10.90;7.25;;;20.60;61.60;;;;;;5071906;28;20059;-77
2023/04/29 08:29:59;;;;;;;12.55;7.50;;;20.70;60.50;;;;;;5071926;28;20055;-77
2023/04/29 08:32:24;;;;;;;11.68;6.18;;;20.80;60.40;;;;;;5071921;28;20028;-77
2023/04/29 08:34:50;;;;;;;15.00;5.97;;;20.90;59.90;;;;;;5073025;28;20020;-77
2023/04/29 08:37:16;;;;;;;6.05;4.75;;;21.10;59.00;;;;;;5071597;28;20051;-77
2023/04/29 08:39:47;;;;;;;6.95;4.70;;;21.20;58.90;;;;;;5073274;28;20130;-77
2023/04/29 08:42:13;;;;;;;6.28;3.72;;;21.30;58.20;;;;;;5064310;28;20470;-77
2023/04/29 08:44:40;;;;;;;8.27;4.57;;;21.40;58.10;;;;;;5052950;28;20028;-77
2023/04/29 08:47:06;;;;;;;5.07;3.67;;;21.40;57.80;;;;;;5052941;28;20025;-77
2023/04/29 08:49:32;;;;;;;7.82;3.65;;;21.40;57.70;;;;;;5052935;28;20029;-77
2023/04/29 08:51:59;;;;;;;7.78;5.13;;;21.40;58.00;;;;;;5068183;28;20021;-78
2023/04/29 08:54:27;;;;;;;4.53;3.25;;;21.40;57.50;;;;;;5053064;28;20090;-77
2023/04/29 08:56:54;;;;;;;5.18;3.08;;;21.40;57.60;;;;;;5063926;28;20067;-77
2023/04/29 08:59:21;;;;;;;4.80;3.30;;;21.50;57.30;;;;;;5071620;28;20017;-77
2023/04/29 09:01:50;;;;;;;3.80;2.78;;;21.60;57.50;;;;;;5071643;28;20085;-76
2023/04/29 09:04:46;;;;;;;5.47;3.58;;;21.80;57.60;;;;;;5072684;28;20101;-77
2023/04/29 09:07:12;;;;;;;2.63;2.40;;;21.90;57.60;;;;;;5073008;28;20416;-77
2023/04/29 09:09:39;;;;;;;7.88;3.75;;;22.10;56.10;;;;;;5059276;28;20025;-77
2023/04/29 09:12:05;;;;;;;4.53;3.08;;;22.10;56.30;;;;;;5051827;28;20033;-76
2023/04/29 09:14:34;;;;;;;5.30;3.28;;;22.20;55.30;;;;;;5051489;28;20209;-77
2023/04/29 09:17:00;;;;;;;3.70;2.85;;;22.20;55.00;;;;;;5052593;28;20025;-77
2023/04/29 09:19:34;;;;;;;5.53;3.00;;;22.20;54.60;;;;;;5067642;28;20040;-76
2023/04/29 09:22:04;;;;;;;4.13;3.00;;;22.20;55.00;;;;;;5072848;28;20416;-77
2023/04/29 09:24:30;;;;;;;3.25;2.60;;;22.30;54.90;;;;;;5070126;28;20060;-77
2023/04/29 09:26:57;;;;;;;5.75;2.75;;;22.30;55.00;;;;;;5059535;28;20024;-77
2023/04/29 09:29:23;;;;;;;4.95;3.20;;;22.30;55.00;;;;;;5076476;28;20479;-77
2023/04/29 09:31:52;;;;;;;6.63;3.65;;;22.30;54.40;;;;;;5076119;28;20040;-77
2023/04/29 09:34:34;;;;;;;12.15;4.20;;;22.30;54.90;;;;;;5074920;28;20017;-76
2023/04/29 09:37:00;;;;;;;7.97;3.75;;;22.30;54.40;;;;;;5075954;28;20095;-77
2023/04/29 09:39:26;;;;;;;5.10;3.90;;;22.30;54.50;;;;;;5075862;28;20095;-77
2023/04/29 09:41:52;;;;;;;5.20;3.60;;;22.30;54.50;;;;;;5074500;28;20028;-78
2023/04/29 09:44:20;;;;;;;4.78;3.33;;;22.40;55.00;;;;;;5075627;28;20028;-77
2023/04/29 09:46:56;;;;;;;4.40;3.75;;;22.50;55.00;;;;;;5075760;28;20024;-77
2023/04/29 09:49:27;;;;;;;5.82;4.15;;;22.60;54.70;;;;;;5072699;28;20025;-77
2023/04/29 09:52:04;;;;;;;6.20;4.40;;;22.70;54.50;;;;;;5075079;28;20020;-77
2023/04/29 09:54:31;;;;;;;7.05;3.63;;;22.70;53.70;;;;;;5068970;28;20474;-77
2023/04/29 09:57:01;;;;;;;5.75;3.90;;;22.70;53.60;;;;;;5055554;28;20021;-77
2023/04/29 09:59:26;;;;;;;7.70;4.30;;;22.70;53.40;;;;;;5057990;28;20017;-77
2023/04/29 10:01:57;;;;;;;6.03;4.15;;;22.50;53.30;;;;;;5071205;28;20017;-77
2023/04/29 10:04:25;;;;;;;5.68;4.35;;;22.40;53.50;;;;;;5057427;28;20376;-77
2023/04/29 10:06:52;;;;;;;5.85;4.40;;;22.30;53.50;;;;;;5055678;28;20067;-78
2023/04/29 10:09:19;;;;;;;5.20;4.50;;;22.20;53.70;;;;;;5055405;28;20091;-78
2023/04/29 10:11:47;;;;;;;6.90;3.67;;;22.10;54.00;;;;;;5054089;28;20025;-77
2023/04/29 10:14:24;;;;;;;5.70;4.25;;;22.00;54.50;;;;;;5054123;28;20105;-77
2023/04/29 10:17:10;;;;;;;6.20;4.38;;;21.90;54.60;;;;;;5055376;28;20029;-77
2023/04/29 10:19:53;;;;;;;10.52;4.88;;;22.00;54.70;;;;;;5067365;28;20021;-77
2023/04/29 10:22:28;;;;;;;5.25;3.50;;;22.00;55.00;;;;;;5075030;28;20017;-77
2023/04/29 10:24:56;;;;;;;4.70;3.70;;;22.10;55.00;;;;;;5072841;28;20040;-77
2023/04/29 10:27:23;;;;;;;4.93;3.42;;;22.20;55.00;;;;;;5069412;28;20052;-77
2023/04/29 10:29:51;;;;;;;7.47;3.38;;;22.40;54.90;;;;;;5069163;28;20521;-76
2023/04/29 10:32:20;;;;;;;4.53;2.85;;;22.50;53.80;;;;;;5074891;28;20028;-76
2023/04/29 10:34:48;;;;;;;4.22;2.80;;;22.60;52.10;;;;;;5054749;28;20067;-76
2023/04/29 10:37:15;;;;;;;8.55;2.80;;;22.70;52.40;;;;;;5053672;28;20025;-77
2023/04/29 10:39:45;;;;;;;4.53;2.63;;;22.70;52.30;;;;;;5054774;28;20017;-76
2023/04/29 10:42:30;;;;;;;7.25;3.10;;;22.70;52.10;;;;;;5054756;28;20047;-75
2023/04/29 10:45:17;;;;;;;3.75;2.50;;;22.60;52.10;;;;;;5057224;28;20128;-76
2023/04/29 10:48:04;;;;;;;4.18;3.05;;;22.60;52.30;;;;;;5074953;28;20051;-77
2023/04/29 10:50:59;;;;;;;4.13;2.60;;;22.50;52.20;;;;;;5078283;28;20030;-76
2023/04/29 10:53:27;;;;;;;3.85;2.80;;;22.50;52.00;;;;;;5073947;28;20031;-75
2023/04/29 10:56:13;;;;;;;12.77;2.90;;;22.50;52.00;;;;;;5071588;28;20036;-75
2023/04/29 10:58:45;;;;;;;5.40;2.80;;;22.40;52.30;;;;;;5070573;28;20036;-76
2023/04/29 11:01:14;;;;;;;3.35;2.03;;;22.40;52.00;;;;;;5054435;28;20027;-76
2023/04/29 11:03:57;;;;;;;4.35;2.38;;;22.40;51.30;;;;;;5054316;28;20021;-76
2023/04/29 11:06:25;;;;;;;4.00;2.67;;;22.40;51.70;;;;;;5054242;28;20044;-75
2023/04/29 11:09:13;;;;;;;4.75;3.00;;;22.40;51.20;;;;;;5054522;28;20382;-76
2023/04/29 11:11:52;;;;;;;3.58;2.00;;;22.40;51.60;;;;;;5054207;28;20363;-76
2023/04/29 11:14:37;;;;;;;4.38;1.67;;;22.40;51.20;;;;;;5054159;28;20024;-76
2023/04/29 11:17:06;;;;;;;2.85;1.98;;;22.40;50.70;;;;;;5054122;28;20031;-76
2023/04/29 11:19:51;;;;;;;5.72;2.20;;;22.40;50.60;;;;;;5061001;28;20382;-76
2023/04/29 11:22:22;;;;;;;3.45;2.13;;;22.30;49.70;;;;;;5061579;28;20034;-77
2023/04/29 11:25:00;;;;;;;5.10;2.05;;;22.40;49.80;;;;;;5056393;28;20052;-77
2023/04/29 11:27:34;;;;;;;4.57;2.10;;;22.40;50.40;;;;;;5060672;28;20055;-76
2023/04/29 11:30:03;;;;;;;4.97;2.22;;;22.40;50.00;;;;;;5062465;28;20044;-76
2023/04/29 11:32:40;;;;;;;2.80;1.67;;;22.40;49.10;;;;;;5061202;28;20021;-77
2023/04/29 11:35:18;;;;;;;3.38;1.60;;;22.40;49.30;;;;;;5061617;28;20024;-78
2023/04/29 11:37:45;;;;;;;3.30;1.88;;;22.40;49.20;;;;;;5063238;28;20020;-77
2023/04/29 11:40:12;;;;;;;13.90;1.95;;;22.50;48.70;;;;;;5059583;28;20025;-77
2023/04/29 11:42:47;;;;;;;4.65;2.30;;;22.50;49.00;;;;;;5061986;28;20017;-78
2023/04/29 11:45:14;;;;;;;6.53;2.30;;;22.60;48.20;;;;;;5071388;28;20024;-78
2023/04/29 11:47:47;;;;;;;5.35;2.20;;;22.70;49.10;;;;;;5081901;28;20024;-78
2023/04/29 11:50:16;;;;;;;5.75;3.70;;;22.80;48.80;;;;;;5058568;28;20159;-77
2023/04/29 11:52:43;;;;;;;4.65;2.40;;;22.90;48.30;;;;;;5064610;28;20078;-79
2023/04/29 11:55:10;;;;;;;4.15;2.10;;;23.00;47.80;;;;;;5056153;28;20032;-80
2023/04/29 11:57:40;;;;;;;3.70;1.92;;;23.10;47.00;;;;;;5052235;28;20025;-80
2023/04/29 12:00:13;;;;;;;6.40;3.25;;;23.10;46.10;;;;;;5061830;28;20354;-80
2023/04/29 12:02:43;;;;;;;6.03;1.67;;;23.10;45.80;;;;;;5068784;28;20021;-78
2023/04/29 12:05:11;;;;;;;6.10;2.65;;;23.10;45.00;;;;;;5068889;28;20087;-80
2023/04/29 12:07:39;;;;;;;3.28;1.63;;;23.10;45.50;;;;;;5055375;28;20063;-79
2023/04/29 12:10:12;;;;;;;1.75;1.27;;;23.10;44.30;;;;;;5060051;28;20095;-79
2023/04/29 12:12:40;;;;;;;2.53;1.23;;;23.10;43.80;;;;;;5058410;28;20025;-80
2023/04/29 12:15:07;;;;;;;5.43;1.40;;;23.20;44.50;;;;;;5085380;28;20023;-79
2023/04/29 12:17:33;;;;;;;3.97;1.73;;;23.20;44.20;;;;;;5071730;28;20028;-79
2023/04/29 12:19:59;;;;;;;2.50;1.20;;;23.20;43.50;;;;;;5070701;28;20470;-80
2023/04/29 12:22:34;;;;;;;1.58;1.27;;;23.20;43.80;;;;;;5059211;28;20021;-79
2023/04/29 12:25:04;;;;;;;4.68;1.60;;;23.20;43.90;;;;;;5056915;28;20069;-78
2023/04/29 12:27:29;;;;;;;3.70;1.50;;;23.10;43.30;;;;;;5064185;28;20073;-81
2023/04/29 12:29:56;;;;;;;3.28;1.45;;;23.10;43.20;;;;;;5074837;28;20031;-80
2023/04/29 12:32:23;;;;;;;2.35;1.40;;;23.10;43.10;;;;;;5078823;28;20016;-80
2023/04/29 12:34:53;;;;;;;4.65;1.45;;;23.10;43.00;;;;;;5093210;28;20105;-79
2023/04/29 12:37:22;;;;;;;3.85;1.33;;;23.10;42.20;;;;;;5077966;28;20039;-79
2023/04/29 12:39:49;;;;;;;3.60;1.58;;;23.10;43.10;;;;;;5070683;28;20102;-82